sensor_id;sensor_type;location;lat;lon;timestamp;pressure;altitude;pressure_sealevel;temperature;humidity
69766;BME280;57039;48.014;21.384;2022-11-04T00:00:07;100739.13;;;8.53;100.00
69766;BME280;57039;48.014;21.384;2022-11-04T00:01:10;100749.31;;;8.59;100.00
69766;BME280;57039;48.014;21.384;2022-11-04T00:02:13;100751.84;;;8.61;100.00
69766;BME280;57039;48.014;21.384;2022-11-04T00:03:16;100743.16;;;8.60;100.00
69766;BME280;57039;48.014;21.384;2022-11-04T00:04:20;100746.63;;;8.61;100.00
69766;BME280;57039;48.014;21.384;2022-11-04T00:05:23;100750.22;;;8.58;100.00
69766;BME280;57039;48.014;21.384;2022-11-04T00:06:26;100741.47;;;8.59;100.00
69766;BME280;57039;48.014;21.384;2022-11-04T00:07:29;100743.25;;;8.59;100.00
69766;BME280;57039;48.014;21.384;2022-11-04T00:08:54;100734.59;;;8.57;100.00
69766;BME280;57039;48.014;21.384;2022-11-04T00:09:56;100743.25;;;8.59;100.00
69766;BME280;57039;48.014;21.384;2022-11-04T00:10:59;100733.56;;;8.61;100.00
69766;BME280;57039;48.014;21.384;2022-11-04T00:12:21;100737.09;;;8.60;100.00
69766;BME280;57039;48.014;21.384;2022-11-04T00:13:29;100734.34;;;8.63;100.00
69766;BME280;57039;48.014;21.384;2022-11-04T00:14:32;100726.53;;;8.61;100.00
69766;BME280;57039;48.014;21.384;2022-11-04T00:15:36;100728.19;;;8.64;100.00
69766;BME280;57039;48.014;21.384;2022-11-04T00:17:02;100729.13;;;8.63;100.00
69766;BME280;57039;48.014;21.384;2022-11-04T00:18:21;100728.41;;;8.59;100.00
69766;BME280;57039;48.014;21.384;2022-11-04T00:19:24;100721.41;;;8.60;100.00
69766;BME280;57039;48.014;21.384;2022-11-04T00:20:26;100727.47;;;8.60;100.00
69766;BME280;57039;48.014;21.384;2022-11-04T00:21:48;100719.56;;;8.62;100.00
69766;BME280;57039;48.014;21.384;2022-11-04T00:23:09;100724.72;;;8.63;100.00
69766;BME280;57039;48.014;21.384;2022-11-04T00:24:31;100725.44;;;8.67;100.00
69766;BME280;57039;48.014;21.384;2022-11-04T00:25:52;100711.72;;;8.62;100.00
69766;BME280;57039;48.014;21.384;2022-11-04T00:27:18;100721.19;;;8.64;100.00
69766;BME280;57039;48.014;21.384;2022-11-04T00:28:40;100714.25;;;8.63;100.00
69766;BME280;57039;48.014;21.384;2022-11-04T00:29:46;100709.03;;;8.63;100.00
69766;BME280;57039;48.014;21.384;2022-11-04T00:30:52;100707.13;;;8.67;100.00
69766;BME280;57039;48.014;21.384;2022-11-04T00:31:55;100701.00;;;8.68;100.00
69766;BME280;57039;48.014;21.384;2022-11-04T00:33:16;100704.50;;;8.67;100.00
69766;BME280;57039;48.014;21.384;2022-11-04T00:34:27;100701.00;;;8.68;100.00
69766;BME280;57039;48.014;21.384;2022-11-04T00:35:30;100704.50;;;8.67;100.00
69766;BME280;57039;48.014;21.384;2022-11-04T00:36:33;100702.78;;;8.67;100.00
69766;BME280;57039;48.014;21.384;2022-11-04T00:37:40;100701.91;;;8.67;100.00
69766;BME280;57039;48.014;21.384;2022-11-04T00:38:43;100691.53;;;8.65;100.00
69766;BME280;57039;48.014;21.384;2022-11-04T00:39:46;100683.59;;;8.67;100.00
69766;BME280;57039;48.014;21.384;2022-11-04T00:40:49;100686.19;;;8.67;100.00
69766;BME280;57039;48.014;21.384;2022-11-04T00:41:52;100684.53;;;8.66;100.00
69766;BME280;57039;48.014;21.384;2022-11-04T00:42:54;100682.75;;;8.66;100.00
69766;BME280;57039;48.014;21.384;2022-11-04T00:44:01;100680.97;;;8.67;100.00
69766;BME280;57039;48.014;21.384;2022-11-04T00:45:06;100678.34;;;8.67;100.00
69766;BME280;57039;48.014;21.384;2022-11-04T00:46:08;100662.81;;;8.64;100.00
69766;BME280;57039;48.014;21.384;2022-11-04T00:47:11;100661.13;;;8.63;100.00
69766;BME280;57039;48.014;21.384;2022-11-04T00:48:14;100662.03;;;8.62;100.00
69766;BME280;57039;48.014;21.384;2022-11-04T00:49:16;100660.13;;;8.65;100.00
69766;BME280;57039;48.014;21.384;2022-11-04T00:50:19;100669.75;;;8.65;100.00
69766;BME280;57039;48.014;21.384;2022-11-04T00:51:22;100677.59;;;8.65;100.00
69766;BME280;57039;48.014;21.384;2022-11-04T00:52:25;100674.00;;;8.67;100.00
69766;BME280;57039;48.014;21.384;2022-11-04T00:53:27;100673.00;;;8.70;100.00
69766;BME280;57039;48.014;21.384;2022-11-04T00:54:30;100668.63;;;8.71;100.00
69766;BME280;57039;48.014;21.384;2022-11-04T00:55:33;100666.78;;;8.73;100.00
69766;BME280;57039;48.014;21.384;2022-11-04T00:56:37;100664.09;;;8.74;100.00
69766;BME280;57039;48.014;21.384;2022-11-04T00:57:40;100660.50;;;8.77;100.00
69766;BME280;57039;48.014;21.384;2022-11-04T00:58:43;100658.78;;;8.76;100.00
69766;BME280;57039;48.014;21.384;2022-11-04T00:59:45;100660.50;;;8.77;100.00
69766;BME280;57039;48.014;21.384;2022-11-04T01:00:48;100658.88;;;8.74;100.00
69766;BME280;57039;48.014;21.384;2022-11-04T01:01:51;100654.41;;;8.76;100.00
69766;BME280;57039;48.014;21.384;2022-11-04T01:02:55;100653.50;;;8.77;100.00
69766;BME280;57039;48.014;21.384;2022-11-04T01:03:58;100649.12;;;8.78;100.00
69766;BME280;57039;48.014;21.384;2022-11-04T01:05:00;100644.81;;;8.77;100.00
69766;BME280;57039;48.014;21.384;2022-11-04T01:06:03;100653.50;;;8.77;100.00
69766;BME280;57039;48.014;21.384;2022-11-04T01:07:06;100647.47;;;8.75;100.00
69766;BME280;57039;48.014;21.384;2022-11-04T01:08:10;100640.47;;;8.76;100.00
69766;BME280;57039;48.014;21.384;2022-11-04T01:09:13;100633.63;;;8.73;100.00
69766;BME280;57039;48.014;21.384;2022-11-04T01:10:15;100631.00;;;8.73;100.00
69766;BME280;57039;48.014;21.384;2022-11-04T01:11:18;100631.78;;;8.75;100.00
69766;BME280;57039;48.014;21.384;2022-11-04T01:12:21;100628.38;;;8.73;100.00
69766;BME280;57039;48.014;21.384;2022-11-04T01:13:23;100628.25;;;8.76;100.00
69766;BME280;57039;48.014;21.384;2022-11-04T01:14:26;100624.88;;;8.74;100.00
69766;BME280;57039;48.014;21.384;2022-11-04T01:15:28;100625.78;;;8.73;100.00
69766;BME280;57039;48.014;21.384;2022-11-04T01:16:31;100628.38;;;8.73;100.00
69766;BME280;57039;48.014;21.384;2022-11-04T01:17:35;100619.00;;;8.69;100.00
69766;BME280;57039;48.014;21.384;2022-11-04T01:18:38;100617.91;;;8.73;100.00
69766;BME280;57039;48.014;21.384;2022-11-04T01:19:41;100611.00;;;8.72;100.00
69766;BME280;57039;48.014;21.384;2022-11-04T01:20:43;100612.84;;;8.70;100.00
69766;BME280;57039;48.014;21.384;2022-11-04T01:21:50;100609.38;;;8.69;100.00
69766;BME280;57039;48.014;21.384;2022-11-04T01:22:53;100611.22;;;8.67;100.00
69766;BME280;57039;48.014;21.384;2022-11-04T01:23:56;100604.13;;;8.69;100.00
69766;BME280;57039;48.014;21.384;2022-11-04T01:24:58;100606.91;;;8.66;100.00
69766;BME280;57039;48.014;21.384;2022-11-04T01:26:06;100607.69;;;8.68;100.00
69766;BME280;57039;48.014;21.384;2022-11-04T01:27:09;100614.75;;;8.66;100.00
69766;BME280;57039;48.014;21.384;2022-11-04T01:28:12;100610.34;;;8.67;100.00
69766;BME280;57039;48.014;21.384;2022-11-04T01:29:14;100617.31;;;8.68;100.00
69766;BME280;57039;48.014;21.384;2022-11-04T01:30:17;100609.50;;;8.66;100.00
69766;BME280;57039;48.014;21.384;2022-11-04T01:31:25;100617.59;;;8.62;100.00
69766;BME280;57039;48.014;21.384;2022-11-04T01:32:28;100617.31;;;8.68;100.00
69766;BME280;57039;48.014;21.384;2022-11-04T01:33:31;100617.44;;;8.65;100.00
69766;BME280;57039;48.014;21.384;2022-11-04T01:34:34;100618.44;;;8.62;100.00
69766;BME280;57039;48.014;21.384;2022-11-04T01:35:44;100612.97;;;8.67;100.00
69766;BME280;57039;48.014;21.384;2022-11-04T01:36:47;100605.22;;;8.65;100.00
69766;BME280;57039;48.014;21.384;2022-11-04T01:37:50;100601.75;;;8.65;100.00
69766;BME280;57039;48.014;21.384;2022-11-04T01:38:56;100594.81;;;8.64;100.00
69766;BME280;57039;48.014;21.384;2022-11-04T01:39:59;100598.34;;;8.63;100.00
69766;BME280;57039;48.014;21.384;2022-11-04T01:41:02;100594.19;;;8.59;100.00
69766;BME280;57039;48.014;21.384;2022-11-04T01:42:04;100588.44;;;8.51;100.00
69766;BME280;57039;48.014;21.384;2022-11-04T01:43:16;100592.00;;;8.50;100.00
69766;BME280;57039;48.014;21.384;2022-11-04T01:45:47;100585.97;;;8.48;100.00
69766;BME280;57039;48.014;21.384;2022-11-04T01:46:52;100578.28;;;8.44;100.00
69766;BME280;57039;48.014;21.384;2022-11-04T01:48:02;100585.31;;;8.42;100.00
69766;BME280;57039;48.014;21.384;2022-11-04T01:50:29;100578.66;;;8.35;100.00
69766;BME280;57039;48.014;21.384;2022-11-04T01:51:35;100576.09;;;8.34;100.00
69766;BME280;57039;48.014;21.384;2022-11-04T01:53:44;100578.78;;;8.32;100.00
69766;BME280;57039;48.014;21.384;2022-11-04T01:54:48;100576.31;;;8.29;100.00
69766;BME280;57039;48.014;21.384;2022-11-04T01:55:58;100585.94;;;8.29;100.00
69766;BME280;57039;48.014;21.384;2022-11-04T01:57:02;100582.53;;;8.27;100.00
69766;BME280;57039;48.014;21.384;2022-11-04T01:58:14;100582.44;;;8.28;100.00
69766;BME280;57039;48.014;21.384;2022-11-04T01:59:25;100570.28;;;8.27;100.00
69766;BME280;57039;48.014;21.384;2022-11-04T02:00:29;100561.66;;;8.25;100.00
69766;BME280;57039;48.014;21.384;2022-11-04T02:01:33;100570.28;;;8.27;100.00
69766;BME280;57039;48.014;21.384;2022-11-04T02:02:43;100561.53;;;8.28;100.00
69766;BME280;57039;48.014;21.384;2022-11-04T02:03:54;100572.78;;;8.30;100.00
69766;BME280;57039;48.014;21.384;2022-11-04T02:04:57;100571.00;;;8.31;100.00
69766;BME280;57039;48.014;21.384;2022-11-04T02:06:01;100565.03;;;8.29;100.00
69766;BME280;57039;48.014;21.384;2022-11-04T02:07:07;100562.53;;;8.26;100.00
69766;BME280;57039;48.014;21.384;2022-11-04T02:08:11;100562.53;;;8.26;100.00
69766;BME280;57039;48.014;21.384;2022-11-04T02:09:16;100560.97;;;8.21;100.00
69766;BME280;57039;48.014;21.384;2022-11-04T02:10:21;100542.75;;;8.20;100.00
69766;BME280;57039;48.014;21.384;2022-11-04T02:11:25;100552.94;;;8.26;100.00
69766;BME280;57039;48.014;21.384;2022-11-04T02:12:47;100550.38;;;8.24;100.00
69766;BME280;57039;48.014;21.384;2022-11-04T02:13:52;100547.84;;;8.23;100.00
69766;BME280;57039;48.014;21.384;2022-11-04T02:14:57;100542.63;;;8.23;100.00
69766;BME280;57039;48.014;21.384;2022-11-04T02:18:39;100537.53;;;8.20;100.00
69766;BME280;57039;48.014;21.384;2022-11-04T02:24:53;100522.97;;;8.14;100.00
69766;BME280;57039;48.014;21.384;2022-11-04T02:27:36;100510.88;;;8.12;100.00
69766;BME280;57039;48.014;21.384;2022-11-04T02:30:13;100507.69;;;8.05;100.00
69766;BME280;57039;48.014;21.384;2022-11-04T02:31:29;100504.31;;;8.03;100.00
69766;BME280;57039;48.014;21.384;2022-11-04T02:39:21;100506.41;;;7.95;100.00
69766;BME280;57039;48.014;21.384;2022-11-04T02:40:40;100509.84;;;7.95;100.00
69766;BME280;57039;48.014;21.384;2022-11-04T02:42:00;100515.16;;;7.94;100.00
69766;BME280;57039;48.014;21.384;2022-11-04T02:46:17;100515.16;;;7.94;100.00
69766;BME280;57039;48.014;21.384;2022-11-04T02:47:25;100519.72;;;7.89;100.00
69766;BME280;57039;48.014;21.384;2022-11-04T02:48:46;100523.25;;;7.88;100.00
69766;BME280;57039;48.014;21.384;2022-11-04T02:49:58;100513.75;;;7.87;100.00
69766;BME280;57039;48.014;21.384;2022-11-04T02:51:09;100519.94;;;7.84;100.00
69766;BME280;57039;48.014;21.384;2022-11-04T02:52:42;100526.81;;;7.87;100.00
69766;BME280;57039;48.014;21.384;2022-11-04T02:55:00;100518.97;;;7.87;100.00
69766;BME280;57039;48.014;21.384;2022-11-04T02:56:05;100522.47;;;7.86;100.00
69766;BME280;57039;48.014;21.384;2022-11-04T02:57:13;100518.19;;;7.85;100.00
69766;BME280;57039;48.014;21.384;2022-11-04T02:58:24;100528.81;;;7.80;100.00
69766;BME280;57039;48.014;21.384;2022-11-04T02:59:38;100528.75;;;7.82;100.00
69766;BME280;57039;48.014;21.384;2022-11-04T03:00:44;100529.53;;;7.84;100.00
69766;BME280;57039;48.014;21.384;2022-11-04T03:01:48;100523.44;;;7.83;100.00
69766;BME280;57039;48.014;21.384;2022-11-04T03:03:06;100519.28;;;7.79;100.00
69766;BME280;57039;48.014;21.384;2022-11-04T03:04:18;100518.63;;;7.74;100.00
69766;BME280;57039;48.014;21.384;2022-11-04T03:05:27;100518.37;;;7.80;100.00
69766;BME280;57039;48.014;21.384;2022-11-04T03:06:33;100523.53;;;7.82;100.00
69766;BME280;57039;48.014;21.384;2022-11-04T03:07:40;100521.75;;;7.82;100.00
69766;BME280;57039;48.014;21.384;2022-11-04T03:08:47;100514.78;;;7.83;100.00
69766;BME280;57039;48.014;21.384;2022-11-04T03:09:57;100519.22;;;7.81;100.00
69766;BME280;57039;48.014;21.384;2022-11-04T03:11:06;100516.69;;;7.79;100.00
69766;BME280;57039;48.014;21.384;2022-11-04T03:12:14;100506.28;;;7.77;100.00
69766;BME280;57039;48.014;21.384;2022-11-04T03:13:39;100517.38;;;7.83;100.00
69766;BME280;57039;48.014;21.384;2022-11-04T03:14:47;100510.53;;;7.80;100.00
69766;BME280;57039;48.014;21.384;2022-11-04T03:16:02;100509.62;;;7.81;100.00
69766;BME280;57039;48.014;21.384;2022-11-04T03:17:09;100501.16;;;7.76;100.00
69766;BME280;57039;48.014;21.384;2022-11-04T03:20:39;100508.19;;;7.74;100.00
69766;BME280;57039;48.014;21.384;2022-11-04T03:21:54;100507.34;;;7.73;100.00
69766;BME280;57039;48.014;21.384;2022-11-04T03:22:59;100511.16;;;7.66;100.00
69766;BME280;57039;48.014;21.384;2022-11-04T03:24:02;100512.56;;;7.73;100.00
69766;BME280;57039;48.014;21.384;2022-11-04T03:25:07;100503.81;;;7.74;100.00
69766;BME280;57039;48.014;21.384;2022-11-04T03:26:19;100502.19;;;7.72;100.00
69766;BME280;57039;48.014;21.384;2022-11-04T03:29:36;100506.69;;;7.68;100.00
69766;BME280;57039;48.014;21.384;2022-11-04T03:30:44;100510.09;;;7.70;100.00
69766;BME280;57039;48.014;21.384;2022-11-04T03:33:42;100512.00;;;7.67;100.00
69766;BME280;57039;48.014;21.384;2022-11-04T03:34:48;100513.69;;;7.68;100.00
69766;BME280;57039;48.014;21.384;2022-11-04T03:35:51;100512.00;;;7.67;100.00
69766;BME280;57039;48.014;21.384;2022-11-04T03:36:55;100495.47;;;7.66;100.00
69766;BME280;57039;48.014;21.384;2022-11-04T03:37:58;100492.06;;;7.64;100.00
69766;BME280;57039;48.014;21.384;2022-11-04T03:39:01;100482.69;;;7.60;100.00
69766;BME280;57039;48.014;21.384;2022-11-04T03:40:04;100479.94;;;7.63;100.00
69766;BME280;57039;48.014;21.384;2022-11-04T03:41:17;100484.19;;;7.66;100.00
69766;BME280;57039;48.014;21.384;2022-11-04T03:42:22;100488.66;;;7.62;100.00
69766;BME280;57039;48.014;21.384;2022-11-04T03:43:25;100488.53;;;7.65;100.00
69766;BME280;57039;48.014;21.384;2022-11-04T03:44:29;100489.41;;;7.66;100.00
69766;BME280;57039;48.014;21.384;2022-11-04T03:45:32;100493.84;;;7.64;100.00
69766;BME280;57039;48.014;21.384;2022-11-04T03:46:34;100491.22;;;7.64;100.00
69766;BME280;57039;48.014;21.384;2022-11-04T03:47:38;100494.63;;;7.66;100.00
69766;BME280;57039;48.014;21.384;2022-11-04T03:48:41;100498.94;;;7.67;100.00
69766;BME280;57039;48.014;21.384;2022-11-04T03:49:47;100498.94;;;7.67;100.00
69766;BME280;57039;48.014;21.384;2022-11-04T03:50:50;100491.94;;;7.67;100.00
69766;BME280;57039;48.014;21.384;2022-11-04T03:51:53;100486.91;;;7.63;100.00
69766;BME280;57039;48.014;21.384;2022-11-04T03:52:56;100486.84;;;7.64;100.00
69766;BME280;57039;48.014;21.384;2022-11-04T03:54:00;100486.91;;;7.63;100.00
69766;BME280;57039;48.014;21.384;2022-11-04T03:55:03;100476.69;;;7.58;100.00
69766;BME280;57039;48.014;21.384;2022-11-04T03:57:36;100485.47;;;7.55;100.00
69766;BME280;57039;48.014;21.384;2022-11-04T03:58:53;100477.75;;;7.54;100.00
69766;BME280;57039;48.014;21.384;2022-11-04T04:02:33;100484.97;;;7.47;100.00
69766;BME280;57039;48.014;21.384;2022-11-04T04:03:43;100482.44;;;7.46;100.00
69766;BME280;57039;48.014;21.384;2022-11-04T04:04:55;100480.66;;;7.46;100.00
69766;BME280;57039;48.014;21.384;2022-11-04T04:06:25;100482.34;;;7.47;100.00
69766;BME280;57039;48.014;21.384;2022-11-04T04:07:42;100480.84;;;7.42;100.00
69766;BME280;57039;48.014;21.384;2022-11-04T04:08:51;100469.56;;;7.41;100.00
69766;BME280;57039;48.014;21.384;2022-11-04T04:11:43;100477.53;;;7.38;100.00
69766;BME280;57039;48.014;21.384;2022-11-04T04:12:48;100463.97;;;7.30;100.00
69766;BME280;57039;48.014;21.384;2022-11-04T04:15:21;100460.69;;;7.25;100.00
69766;BME280;57039;48.014;21.384;2022-11-04T04:16:35;100453.75;;;7.24;100.00
69766;BME280;57039;48.014;21.384;2022-11-04T04:17:46;100460.56;;;7.28;100.00
69766;BME280;57039;48.014;21.384;2022-11-04T04:18:58;100453.75;;;7.24;100.00
69766;BME280;57039;48.014;21.384;2022-11-04T04:20:15;100457.25;;;7.24;100.00
69766;BME280;57039;48.014;21.384;2022-11-04T04:21:22;100457.25;;;7.24;100.00
69766;BME280;57039;48.014;21.384;2022-11-04T04:22:41;100454.56;;;7.26;100.00
69766;BME280;57039;48.014;21.384;2022-11-04T04:23:48;100457.37;;;7.21;100.00
69766;BME280;57039;48.014;21.384;2022-11-04T04:25:13;100460.75;;;7.23;100.00
69766;BME280;57039;48.014;21.384;2022-11-04T04:26:38;100449.56;;;7.21;100.00
69766;BME280;57039;48.014;21.384;2022-11-04T04:28:01;100452.28;;;7.18;100.00
69766;BME280;57039;48.014;21.384;2022-11-04T04:29:06;100454.81;;;7.20;100.00
69766;BME280;57039;48.014;21.384;2022-11-04T04:30:12;100453.13;;;7.19;100.00
69766;BME280;57039;48.014;21.384;2022-11-04T04:31:15;100456.50;;;7.21;100.00
69766;BME280;57039;48.014;21.384;2022-11-04T04:32:46;100461.84;;;7.18;100.00
69766;BME280;57039;48.014;21.384;2022-11-04T04:33:50;100453.97;;;7.19;100.00
69766;BME280;57039;48.014;21.384;2022-11-04T04:34:53;100458.34;;;7.19;100.00
69766;BME280;57039;48.014;21.384;2022-11-04T04:36:14;100465.25;;;7.20;100.00
69766;BME280;57039;48.014;21.384;2022-11-04T04:37:23;100454.94;;;7.17;100.00
69766;BME280;57039;48.014;21.384;2022-11-04T04:38:28;100463.44;;;7.22;100.00
69766;BME280;57039;48.014;21.384;2022-11-04T04:39:57;100465.13;;;7.23;100.00
69766;BME280;57039;48.014;21.384;2022-11-04T04:41:29;100466.81;;;7.24;100.00
69766;BME280;57039;48.014;21.384;2022-11-04T04:42:52;100470.34;;;7.23;100.00
69766;BME280;57039;48.014;21.384;2022-11-04T04:44:20;100463.44;;;7.22;100.00
69766;BME280;57039;48.014;21.384;2022-11-04T04:45:47;100466.03;;;7.22;100.00
69766;BME280;57039;48.014;21.384;2022-11-04T04:46:50;100466.03;;;7.22;100.00
69766;BME280;57039;48.014;21.384;2022-11-04T04:47:55;100459.91;;;7.23;100.00
69766;BME280;57039;48.014;21.384;2022-11-04T04:49:08;100463.44;;;7.22;100.00
69766;BME280;57039;48.014;21.384;2022-11-04T04:50:18;100460.81;;;7.22;100.00
69766;BME280;57039;48.014;21.384;2022-11-04T04:51:21;100463.44;;;7.22;100.00
69766;BME280;57039;48.014;21.384;2022-11-04T04:52:27;100463.34;;;7.23;100.00
69766;BME280;57039;48.014;21.384;2022-11-04T04:53:31;100469.38;;;7.25;100.00
69766;BME280;57039;48.014;21.384;2022-11-04T04:54:34;100465.00;;;7.26;100.00
69766;BME280;57039;48.014;21.384;2022-11-04T04:55:36;100460.63;;;7.26;100.00
69766;BME280;57039;48.014;21.384;2022-11-04T04:56:43;100463.22;;;7.26;100.00
69766;BME280;57039;48.014;21.384;2022-11-04T04:57:46;100457.16;;;7.26;100.00
69766;BME280;57039;48.014;21.384;2022-11-04T04:58:49;100447.00;;;7.20;100.00
69766;BME280;57039;48.014;21.384;2022-11-04T04:59:51;100456.28;;;7.27;100.00
69766;BME280;57039;48.014;21.384;2022-11-04T05:00:54;100453.72;;;7.25;100.00
69766;BME280;57039;48.014;21.384;2022-11-04T05:01:56;100459.78;;;7.26;100.00
69766;BME280;57039;48.014;21.384;2022-11-04T05:02:59;100465.06;;;7.24;100.00
69766;BME280;57039;48.014;21.384;2022-11-04T05:04:02;100461.53;;;7.25;100.00
69766;BME280;57039;48.014;21.384;2022-11-04T05:05:05;100456.28;;;7.27;100.00
69766;BME280;57039;48.014;21.384;2022-11-04T05:06:08;100453.72;;;7.25;100.00
69766;BME280;57039;48.014;21.384;2022-11-04T05:07:10;100455.47;;;7.25;100.00
69766;BME280;57039;48.014;21.384;2022-11-04T05:08:13;100454.56;;;7.26;100.00
69766;BME280;57039;48.014;21.384;2022-11-04T05:09:16;100447.78;;;7.22;100.00
69766;BME280;57039;48.014;21.384;2022-11-04T05:10:18;100453.97;;;7.19;100.00
69766;BME280;57039;48.014;21.384;2022-11-04T05:11:21;100451.22;;;7.22;100.00
69766;BME280;57039;48.014;21.384;2022-11-04T05:12:28;100454.81;;;7.20;100.00
69766;BME280;57039;48.014;21.384;2022-11-04T05:13:50;100454.81;;;7.20;100.00
69766;BME280;57039;48.014;21.384;2022-11-04T05:14:54;100459.25;;;7.18;100.00
69766;BME280;57039;48.014;21.384;2022-11-04T05:16:01;100459.09;;;7.21;100.00
69766;BME280;57039;48.014;21.384;2022-11-04T05:17:04;100458.41;;;7.17;100.00
69766;BME280;57039;48.014;21.384;2022-11-04T05:18:07;100459.06;;;7.22;100.00
69766;BME280;57039;48.014;21.384;2022-11-04T05:19:10;100464.28;;;7.22;100.00
69766;BME280;57039;48.014;21.384;2022-11-04T05:20:13;100459.19;;;7.19;100.00
69766;BME280;57039;48.014;21.384;2022-11-04T05:21:15;100464.31;;;7.21;100.00
69766;BME280;57039;48.014;21.384;2022-11-04T05:22:18;100458.34;;;7.19;100.00
69766;BME280;57039;48.014;21.384;2022-11-04T05:23:21;100461.00;;;7.17;100.00
69766;BME280;57039;48.014;21.384;2022-11-04T05:24:24;100467.06;;;7.18;100.00
69766;BME280;57039;48.014;21.384;2022-11-04T05:25:27;100475.69;;;7.20;100.00
69766;BME280;57039;48.014;21.384;2022-11-04T05:26:29;100459.25;;;7.18;100.00
69766;BME280;57039;48.014;21.384;2022-11-04T05:27:32;100464.31;;;7.21;100.00
69766;BME280;57039;48.014;21.384;2022-11-04T05:28:35;100462.59;;;7.21;100.00
69766;BME280;57039;48.014;21.384;2022-11-04T05:29:38;100459.06;;;7.22;100.00
69766;BME280;57039;48.014;21.384;2022-11-04T05:30:40;100466.19;;;7.19;100.00
69766;BME280;57039;48.014;21.384;2022-11-04T05:31:43;100462.72;;;7.18;100.00
69766;BME280;57039;48.014;21.384;2022-11-04T05:32:46;100460.03;;;7.20;100.00
69766;BME280;57039;48.014;21.384;2022-11-04T05:33:48;100454.03;;;7.18;100.00
69766;BME280;57039;48.014;21.384;2022-11-04T05:34:51;100456.63;;;7.18;100.00
69766;BME280;57039;48.014;21.384;2022-11-04T05:35:54;100456.63;;;7.18;100.00
69766;BME280;57039;48.014;21.384;2022-11-04T05:36:58;100457.50;;;7.18;100.00
69766;BME280;57039;48.014;21.384;2022-11-04T05:38:00;100448.81;;;7.18;100.00
69766;BME280;57039;48.014;21.384;2022-11-04T05:39:04;100449.56;;;7.21;100.00
69766;BME280;57039;48.014;21.384;2022-11-04T05:40:07;100455.53;;;7.23;100.00
69766;BME280;57039;48.014;21.384;2022-11-04T05:41:11;100457.37;;;7.21;100.00
69766;BME280;57039;48.014;21.384;2022-11-04T05:42:27;100452.88;;;7.25;100.00
69766;BME280;57039;48.014;21.384;2022-11-04T05:43:31;100454.75;;;7.21;100.00
69766;BME280;57039;48.014;21.384;2022-11-04T05:44:34;100453.13;;;7.19;100.00
69766;BME280;57039;48.014;21.384;2022-11-04T05:45:37;100458.97;;;7.24;100.00
69766;BME280;57039;48.014;21.384;2022-11-04T05:46:40;100457.16;;;7.26;100.00
69766;BME280;57039;48.014;21.384;2022-11-04T05:47:43;100453.66;;;7.27;100.00
69766;BME280;57039;48.014;21.384;2022-11-04T05:48:45;100455.41;;;7.26;100.00
69766;BME280;57039;48.014;21.384;2022-11-04T05:49:48;100457.25;;;7.24;100.00
69766;BME280;57039;48.014;21.384;2022-11-04T05:50:51;100453.66;;;7.27;100.00
69766;BME280;57039;48.014;21.384;2022-11-04T05:51:54;100443.41;;;7.22;100.00
69766;BME280;57039;48.014;21.384;2022-11-04T05:53:00;100457.13;;;7.27;100.00
69766;BME280;57039;48.014;21.384;2022-11-04T05:54:03;100456.12;;;7.30;100.00
69766;BME280;57039;48.014;21.384;2022-11-04T05:55:06;100456.06;;;7.31;100.00
69766;BME280;57039;48.014;21.384;2022-11-04T05:56:08;100456.00;;;7.33;100.00
69766;BME280;57039;48.014;21.384;2022-11-04T05:57:12;100453.53;;;7.30;100.00
69766;BME280;57039;48.014;21.384;2022-11-04T05:58:16;100449.03;;;7.34;100.00
69766;BME280;57039;48.014;21.384;2022-11-04T05:59:19;100455.00;;;7.36;100.00
69766;BME280;57039;48.014;21.384;2022-11-04T06:00:22;100457.81;;;7.31;100.00
69766;BME280;57039;48.014;21.384;2022-11-04T06:01:34;100451.56;;;7.35;100.00
69766;BME280;57039;48.014;21.384;2022-11-04T06:02:38;100454.03;;;7.38;100.00
69766;BME280;57039;48.014;21.384;2022-11-04T06:03:40;100452.22;;;7.40;100.00
69766;BME280;57039;48.014;21.384;2022-11-04T06:04:43;100447.00;;;7.40;100.00
69766;BME280;57039;48.014;21.384;2022-11-04T06:05:46;100450.41;;;7.42;100.00
69766;BME280;57039;48.014;21.384;2022-11-04T06:06:49;100451.09;;;7.46;100.00
69766;BME280;57039;48.014;21.384;2022-11-04T06:07:51;100437.22;;;7.45;100.00
69766;BME280;57039;48.014;21.384;2022-11-04T06:08:55;100439.97;;;7.42;100.00
69766;BME280;57039;48.014;21.384;2022-11-04T06:09:57;100433.81;;;7.43;100.00
69766;BME280;57039;48.014;21.384;2022-11-04T06:11:00;100433.81;;;7.43;100.00
69766;BME280;57039;48.014;21.384;2022-11-04T06:12:13;100436.25;;;7.48;100.00
69766;BME280;57039;48.014;21.384;2022-11-04T06:13:16;100435.31;;;7.49;100.00
69766;BME280;57039;48.014;21.384;2022-11-04T06:14:19;100437.13;;;7.47;100.00
69766;BME280;57039;48.014;21.384;2022-11-04T06:15:21;100436.16;;;7.49;100.00
69766;BME280;57039;48.014;21.384;2022-11-04T06:16:25;100435.31;;;7.49;100.00
69766;BME280;57039;48.014;21.384;2022-11-04T06:17:28;100430.00;;;7.50;100.00
69766;BME280;57039;48.014;21.384;2022-11-04T06:18:30;100438.62;;;7.52;100.00
69766;BME280;57039;48.014;21.384;2022-11-04T06:19:33;100430.78;;;7.52;100.00
69766;BME280;57039;48.014;21.384;2022-11-04T06:20:36;100439.47;;;7.53;100.00
69766;BME280;57039;48.014;21.384;2022-11-04T06:21:38;100438.72;;;7.51;100.00
69766;BME280;57039;48.014;21.384;2022-11-04T06:22:41;100436.87;;;7.53;100.00
69766;BME280;57039;48.014;21.384;2022-11-04T06:23:44;100436.72;;;7.56;100.00